sensor_id;sensor_type;location;lat;lon;timestamp;P1;durP1;ratioP1;P2;durP2;ratioP2
28068;SDS011;15382;47.578;8.086;2022-10-17T00:09:44;3.43;;;1.70;;
28068;SDS011;15382;47.578;8.086;2022-10-17T00:19:44;5.63;;;2.00;;
28068;SDS011;15382;47.578;8.086;2022-10-17T00:29:48;4.23;;;2.07;;
28068;SDS011;15382;47.578;8.086;2022-10-17T00:39:50;6.20;;;2.95;;
28068;SDS011;15382;47.578;8.086;2022-10-17T00:49:51;7.67;;;2.87;;
28068;SDS011;15382;47.578;8.086;2022-10-17T00:59:52;7.37;;;2.93;;
28068;SDS011;15382;47.578;8.086;2022-10-17T01:09:55;3.97;;;2.60;;
28068;SDS011;15382;47.578;8.086;2022-10-17T01:40:23;4.65;;;1.70;;
28068;SDS011;15382;47.578;8.086;2022-10-17T01:50:33;9.50;;;2.00;;
28068;SDS011;15382;47.578;8.086;2022-10-17T02:00:38;8.30;;;1.98;;
28068;SDS011;15382;47.578;8.086;2022-10-17T02:20:56;10.52;;;2.17;;
28068;SDS011;15382;47.578;8.086;2022-10-17T02:31:06;5.97;;;2.03;;
28068;SDS011;15382;47.578;8.086;2022-10-17T02:41:18;8.32;;;3.40;;
28068;SDS011;15382;47.578;8.086;2022-10-17T03:01:22;7.63;;;3.17;;
28068;SDS011;15382;47.578;8.086;2022-10-17T03:11:24;5.93;;;2.97;;
28068;SDS011;15382;47.578;8.086;2022-10-17T03:21:25;10.47;;;3.40;;
28068;SDS011;15382;47.578;8.086;2022-10-17T03:31:26;5.17;;;2.77;;
28068;SDS011;15382;47.578;8.086;2022-10-17T03:41:27;8.60;;;2.70;;
28068;SDS011;15382;47.578;8.086;2022-10-17T03:51:28;6.77;;;2.87;;
28068;SDS011;15382;47.578;8.086;2022-10-17T04:01:35;6.65;;;2.97;;
28068;SDS011;15382;47.578;8.086;2022-10-17T04:11:36;10.83;;;2.83;;
28068;SDS011;15382;47.578;8.086;2022-10-17T04:21:38;5.28;;;2.97;;
28068;SDS011;15382;47.578;8.086;2022-10-17T04:31:41;6.50;;;2.90;;
28068;SDS011;15382;47.578;8.086;2022-10-17T04:41:55;22.92;;;2.75;;
28068;SDS011;15382;47.578;8.086;2022-10-17T04:51:56;18.37;;;3.13;;
28068;SDS011;15382;47.578;8.086;2022-10-17T05:02:00;3.75;;;2.60;;
28068;SDS011;15382;47.578;8.086;2022-10-17T05:12:01;6.68;;;3.15;;
28068;SDS011;15382;47.578;8.086;2022-10-17T05:22:04;7.82;;;2.85;;
28068;SDS011;15382;47.578;8.086;2022-10-17T05:32:04;5.60;;;2.63;;
28068;SDS011;15382;47.578;8.086;2022-10-17T05:42:07;3.70;;;2.55;;
28068;SDS011;15382;47.578;8.086;2022-10-17T05:52:09;8.25;;;2.80;;
28068;SDS011;15382;47.578;8.086;2022-10-17T06:02:25;4.90;;;3.22;;
28068;SDS011;15382;47.578;8.086;2022-10-17T06:12:26;7.90;;;3.65;;
28068;SDS011;15382;47.578;8.086;2022-10-17T06:22:27;7.67;;;3.67;;
28068;SDS011;15382;47.578;8.086;2022-10-17T06:32:29;11.02;;;3.55;;
28068;SDS011;15382;47.578;8.086;2022-10-17T06:42:30;6.63;;;4.30;;
28068;SDS011;15382;47.578;8.086;2022-10-17T06:52:57;5.55;;;4.05;;
28068;SDS011;15382;47.578;8.086;2022-10-17T07:03:17;23.17;;;5.32;;
28068;SDS011;15382;47.578;8.086;2022-10-17T07:13:18;63.83;;;7.57;;
28068;SDS011;15382;47.578;8.086;2022-10-17T07:23:19;33.85;;;7.25;;
28068;SDS011;15382;47.578;8.086;2022-10-17T07:33:21;11.88;;;5.82;;
28068;SDS011;15382;47.578;8.086;2022-10-17T07:43:23;42.20;;;7.27;;
28068;SDS011;15382;47.578;8.086;2022-10-17T07:53:26;9.85;;;5.65;;
28068;SDS011;15382;47.578;8.086;2022-10-17T08:03:27;15.27;;;6.90;;
28068;SDS011;15382;47.578;8.086;2022-10-17T08:13:28;10.43;;;6.72;;
28068;SDS011;15382;47.578;8.086;2022-10-17T08:23:29;20.27;;;7.23;;
28068;SDS011;15382;47.578;8.086;2022-10-17T08:33:30;16.60;;;6.43;;
28068;SDS011;15382;47.578;8.086;2022-10-17T08:53:52;10.23;;;6.75;;
28068;SDS011;15382;47.578;8.086;2022-10-17T09:35:02;14.23;;;6.55;;
28068;SDS011;15382;47.578;8.086;2022-10-17T10:05:56;15.73;;;6.60;;
28068;SDS011;15382;47.578;8.086;2022-10-17T10:16:15;9.75;;;6.25;;
28068;SDS011;15382;47.578;8.086;2022-10-17T10:36:21;13.53;;;6.30;;
28068;SDS011;15382;47.578;8.086;2022-10-17T10:46:23;9.30;;;6.10;;
28068;SDS011;15382;47.578;8.086;2022-10-17T11:06:39;5.40;;;3.83;;
28068;SDS011;15382;47.578;8.086;2022-10-17T11:16:52;8.15;;;3.15;;
28068;SDS011;15382;47.578;8.086;2022-10-17T11:27:19;16.20;;;3.13;;
28068;SDS011;15382;47.578;8.086;2022-10-17T11:47:36;15.30;;;4.43;;
28068;SDS011;15382;47.578;8.086;2022-10-17T12:08:35;4.43;;;2.67;;
28068;SDS011;15382;47.578;8.086;2022-10-17T12:29:00;5.03;;;2.58;;
28068;SDS011;15382;47.578;8.086;2022-10-17T12:49:02;5.87;;;2.20;;
28068;SDS011;15382;47.578;8.086;2022-10-17T12:59:08;4.90;;;2.20;;
28068;SDS011;15382;47.578;8.086;2022-10-17T13:09:17;8.07;;;2.67;;
28068;SDS011;15382;47.578;8.086;2022-10-17T13:19:29;6.93;;;2.00;;
28068;SDS011;15382;47.578;8.086;2022-10-17T13:29:43;7.03;;;2.40;;
28068;SDS011;15382;47.578;8.086;2022-10-17T13:39:44;4.65;;;1.88;;
28068;SDS011;15382;47.578;8.086;2022-10-17T13:49:46;6.95;;;2.17;;
28068;SDS011;15382;47.578;8.086;2022-10-17T13:59:49;12.52;;;2.13;;
28068;SDS011;15382;47.578;8.086;2022-10-17T14:09:53;6.78;;;2.10;;
28068;SDS011;15382;47.578;8.086;2022-10-17T14:19:58;8.68;;;1.90;;
28068;SDS011;15382;47.578;8.086;2022-10-17T14:30:27;9.95;;;2.25;;
28068;SDS011;15382;47.578;8.086;2022-10-17T14:40:27;4.78;;;1.98;;
28068;SDS011;15382;47.578;8.086;2022-10-17T14:50:30;7.65;;;3.10;;
28068;SDS011;15382;47.578;8.086;2022-10-17T15:00:32;16.83;;;2.97;;
28068;SDS011;15382;47.578;8.086;2022-10-17T15:10:34;3.97;;;1.90;;
28068;SDS011;15382;47.578;8.086;2022-10-17T15:20:36;7.85;;;1.98;;
28068;SDS011;15382;47.578;8.086;2022-10-17T15:30:37;7.03;;;1.60;;
28068;SDS011;15382;47.578;8.086;2022-10-17T15:40:38;8.52;;;2.20;;
28068;SDS011;15382;47.578;8.086;2022-10-17T15:50:40;4.90;;;2.13;;
28068;SDS011;15382;47.578;8.086;2022-10-17T16:10:42;8.85;;;2.53;;
28068;SDS011;15382;47.578;8.086;2022-10-17T16:20:43;9.77;;;2.30;;
28068;SDS011;15382;47.578;8.086;2022-10-17T16:30:44;6.03;;;2.00;;
28068;SDS011;15382;47.578;8.086;2022-10-17T16:40:45;3.90;;;2.28;;
28068;SDS011;15382;47.578;8.086;2022-10-17T16:50:46;6.93;;;3.20;;
28068;SDS011;15382;47.578;8.086;2022-10-17T17:00:46;10.43;;;2.80;;
28068;SDS011;15382;47.578;8.086;2022-10-17T17:10:47;10.40;;;2.97;;
28068;SDS011;15382;47.578;8.086;2022-10-17T17:20:56;5.50;;;3.15;;
28068;SDS011;15382;47.578;8.086;2022-10-17T17:30:58;5.72;;;3.20;;
28068;SDS011;15382;47.578;8.086;2022-10-17T17:40:59;9.70;;;3.83;;
28068;SDS011;15382;47.578;8.086;2022-10-17T17:51:03;6.07;;;3.70;;
28068;SDS011;15382;47.578;8.086;2022-10-17T18:01:08;21.83;;;6.22;;
28068;SDS011;15382;47.578;8.086;2022-10-17T18:11:10;11.18;;;4.45;;
28068;SDS011;15382;47.578;8.086;2022-10-17T18:21:11;9.77;;;4.40;;
28068;SDS011;15382;47.578;8.086;2022-10-17T18:41:22;6.53;;;4.20;;
28068;SDS011;15382;47.578;8.086;2022-10-17T18:51:24;15.60;;;5.85;;
28068;SDS011;15382;47.578;8.086;2022-10-17T19:01:25;23.02;;;5.88;;
28068;SDS011;15382;47.578;8.086;2022-10-17T19:11:27;23.38;;;4.07;;
28068;SDS011;15382;47.578;8.086;2022-10-17T19:21:29;11.43;;;5.20;;
28068;SDS011;15382;47.578;8.086;2022-10-17T19:31:31;10.40;;;4.28;;
28068;SDS011;15382;47.578;8.086;2022-10-17T19:41:42;7.43;;;4.22;;
28068;SDS011;15382;47.578;8.086;2022-10-17T20:01:45;8.48;;;4.20;;
28068;SDS011;15382;47.578;8.086;2022-10-17T20:11:47;9.87;;;4.30;;
28068;SDS011;15382;47.578;8.086;2022-10-17T20:21:48;16.00;;;4.07;;
28068;SDS011;15382;47.578;8.086;2022-10-17T20:31:49;9.43;;;3.60;;
28068;SDS011;15382;47.578;8.086;2022-10-17T20:41:50;5.67;;;3.43;;
28068;SDS011;15382;47.578;8.086;2022-10-17T20:51:51;14.37;;;3.60;;
28068;SDS011;15382;47.578;8.086;2022-10-17T21:01:52;11.43;;;3.60;;
28068;SDS011;15382;47.578;8.086;2022-10-17T21:11:53;8.00;;;3.58;;
28068;SDS011;15382;47.578;8.086;2022-10-17T21:21:55;12.80;;;3.53;;
28068;SDS011;15382;47.578;8.086;2022-10-17T21:31:56;12.37;;;4.03;;
28068;SDS011;15382;47.578;8.086;2022-10-17T21:41:57;9.83;;;4.33;;
28068;SDS011;15382;47.578;8.086;2022-10-17T21:51:58;11.83;;;3.10;;
28068;SDS011;15382;47.578;8.086;2022-10-17T22:01:59;11.17;;;3.53;;
28068;SDS011;15382;47.578;8.086;2022-10-17T22:11:59;8.53;;;3.40;;
28068;SDS011;15382;47.578;8.086;2022-10-17T22:22:00;10.23;;;3.40;;
28068;SDS011;15382;47.578;8.086;2022-10-17T22:32:01;13.47;;;3.30;;
28068;SDS011;15382;47.578;8.086;2022-10-17T22:42:02;10.40;;;4.10;;
28068;SDS011;15382;47.578;8.086;2022-10-17T22:52:03;9.33;;;4.33;;
28068;SDS011;15382;47.578;8.086;2022-10-17T23:02:04;13.10;;;4.70;;
28068;SDS011;15382;47.578;8.086;2022-10-17T23:12:04;18.67;;;4.43;;
28068;SDS011;15382;47.578;8.086;2022-10-17T23:22:06;13.83;;;4.83;;
28068;SDS011;15382;47.578;8.086;2022-10-17T23:32:07;12.25;;;4.90;;
28068;SDS011;15382;47.578;8.086;2022-10-17T23:42:08;20.57;;;4.40;;
28068;SDS011;15382;47.578;8.086;2022-10-17T23:52:09;11.83;;;4.53;;
